KFLD

Fond Du Lac County Airport

Fond Du Lac, Wisconsin, USA
METAR KFLD 161753Z AUTO 36007KT 10SM CLR M06/M14 A3030 RMK AO2 SLP274 T10611139 11044 21072 50013
Observed Flight Rules
Jan-16 @ 17:53 UTC (34 minutes ago) Visual Flight Rules
Wind Visibility Clouds
360° at 7 knots 10 miles
  • Clear skies
Temperatures Readings
Current -6°C / 21°F
Dewpoint -14°C / 7°F
Humidity 54%
Altimeter 30.3" Hg
Pressure 1027.4 hPa
Elevation 240
METAR KFLD 161753Z AUTO 36007KT 10SM CLR M06/M14 A3030 RMK AO2 SLP274 T10611139 11044 21072 50013
Observed Flight Rules
Jan-16 @ 17:53 UTC
(34 minutes ago)
VFR
Wind Visibility
360° at 7 knots 10 miles
Clouds
  • Clear skies
Temperature Dewpoint
-6°C / 21°F -14°C / 7°F
Humidity Altimeter Pressure
54% 30.3" Hg 1027.4 hPa